• Join FlightAware (Why Join?)
  • Login
  • US Flag 
08:27PM EST


 

Airport Tracker/Info


-or-


 

Live Flight TrackerFlight Track Log ✈ N865JM ✈ 22-Jan-2014 ✈ KPBI - KTEB

Flight Track Log - Related Links

Times and Time Zones

All times are in EST time to prevent confusion due to time zone crossing. See the N865JM flight status page for this flight to view local times or setup timezone preferences in your user account.

Time Position Orientation Groundspeed Altitude Reporting Facility
EST Latitude Longitude Course Direction KTS MPH feet Rate Location/Type
09:20AM 26.7575 -80.1603 28° Northeast 205 236 5,200  Level Miami Center
09:21AM 26.8061 -80.1314 28° Northeast 251 289 8,100 2,820 Climbing Miami Center
09:22AM 26.8356 -80.0297 72° East 277 319 10,900 2,400 Climbing Miami Center
09:23AM 26.8775 -79.9261 66° East 320 368 13,000 2,100 Climbing Miami Center
09:24AM 26.9483 -79.8347 49° Northeast 360 414 15,200 2,100 Climbing Miami Center
09:25AM 27.0167 -79.7481 48° Northeast 398 458 17,300 2,220 Climbing Miami Center
09:26AM 27.1044 -79.6381 48° Northeast 419 482 19,700 2,220 Climbing Miami Center
09:27AM 27.1794 -79.5394 49° Northeast 419 482 21,800 1,620 Climbing Miami Center
09:28AM 27.2628 -79.4364 48° Northeast 424 488 23,000 600 Climbing Miami Center
09:29AM 27.3417 -79.3422 47° Northeast 448 516 23,000 600 Level Miami Center
09:30AM 27.4250 -79.2339 49° Northeast 459 528 24,200 1,560 Climbing Miami Center
09:31AM 27.5167 -79.1164 49° Northeast 449 517 26,200 1,560 Climbing Miami Center
09:32AM 27.5997 -79.0125 48° Northeast 449 517 27,400 1,080 Climbing Miami Center
09:33AM 27.6911 -78.9017 47° Northeast 457 526 28,400 1,020 Climbing Miami Center
09:34AM 27.7717 -78.8047 47° Northeast 468 539 29,500 900 Climbing Miami Center
09:35AM 27.8814 -78.7194 34° Northeast 468 539 30,300 780 Climbing Miami Center
09:36AM 28.0058 -78.6253 44° Northeast 468 539 31,100 720 Climbing Miami Center
09:37AM 28.1217 -78.5492 30° Northeast 484 557 31,800 660 Climbing Miami Center
09:38AM 28.2492 -78.5347 North 447 514 32,500 660 Climbing Miami Center
09:39AM 28.3744 -78.5269 North 447 514 33,200 600 Climbing Miami Center
09:40AM 28.4997 -78.5147 North 447 514 33,800 600 Climbing Miami Center
09:41AM 28.6272 -78.5047 North 447 514 34,500 720 Climbing Miami Center
09:42AM 28.7506 -78.4925 North 447 514 35,300 720 Climbing Miami Center
09:43AM 28.8781 -78.4800 North 447 514 36,000 660 Climbing Miami Center
09:44AM 28.9867 -78.4650 North 454 522 36,700 660 Climbing Miami Center
09:45AM 29.1142 -78.4528 North 448 516 37,400 660 Climbing Miami Center
09:46AM 29.2414 -78.4425 North 442 509 38,100 660 Climbing Miami Center
09:47AM 29.3564 -78.4275 North 437 503 38,800 420 Climbing Miami Center
09:48AM 29.4794 -78.4150 North 432 497 39,000 60 Climbing Miami Center
09:49AM 29.5964 -78.4000 North 432 497 39,000  Level Miami Center
09:50AM 29.6842 -78.3939 North 431 496 39,000  Level Jacksonville Center
09:51AM 29.7981 -78.3719 North 430 495 39,000  Level Jacksonville Center
09:52AM 29.9272 -78.3658 North 447 514 39,000  Level Jacksonville Center
09:53AM 30.0500 -78.3506 North 439 505 39,000 -60 Level Jacksonville Center
09:54AM 30.1706 -78.3400 North 437 503 38,900  Descending Jacksonville Center
09:55AM 30.2831 -78.3297 North 436 502 39,000  Climbing Jacksonville Center
09:56AM 30.4058 -78.3192 North 440 506 39,000  Level Jacksonville Center
09:57AM 30.5283 -78.3036 North 440 506 39,000  Level Jacksonville Center
09:58AM 30.6489 -78.2906 North 438 504 39,000  Level Jacksonville Center
09:59AM 30.7694 -78.2775 North 439 505 39,000  Level Jacksonville Center
10:00AM 30.8986 -78.2664 North 439 505 39,000  Level Jacksonville Center
10:01AM 31.0378 -78.2497 North 445 512 39,000  Level Jacksonville Center
10:02AM 31.1603 -78.2317 North 444 511 39,000  Level Jacksonville Center
10:03AM 31.2811 -78.2256 North 434 499 39,000  Level Jacksonville Center
10:04AM 31.4017 -78.2122 North 434 499 39,000  Level Jacksonville Center
10:05AM 31.5242 -78.1939 North 437 503 39,000  Level Jacksonville Center
10:06AM 31.6425 -78.1808 North 437 503 39,000  Level Jacksonville Center
10:07AM 31.7653 -78.1647 North 438 504 39,000  Level Jacksonville Center
10:08AM 31.8881 -78.1536 North 438 504 39,000  Level Jacksonville Center
10:09AM 32.0086 -78.1400 North 438 504 39,000  Level Jacksonville Center
10:10AM 32.1269 -78.1289 North 438 504 39,000 -60 Level Jacksonville Center
10:11AM 32.2456 -78.1178 North 433 498 38,900  Descending Jacksonville Center
10:12AM 32.3639 -78.1017 North 433 498 39,000  Climbing Jacksonville Center
10:13AM 32.4825 -78.0881 North 428 493 39,000  Level Jacksonville Center
10:14AM 32.6031 -78.0744 North 428 493 39,000  Level Jacksonville Center
10:15AM 32.7236 -78.0631 North 428 493 39,000  Level Jacksonville Center
10:16AM 32.8419 -78.0467 North 428 493 39,000  Level Jacksonville Center
10:17AM 32.9625 -78.0328 North 428 493 39,000  Level Jacksonville Center
10:18AM 33.0831 -78.0214 North 423 487 39,000 -60 Level Jacksonville Center
10:19AM 33.2036 -78.0072 North 423 487 38,900  Descending Jacksonville Center
10:20AM 33.3242 -77.9958 North 423 487 39,000  Climbing Jacksonville Center
10:21AM 33.4467 -77.9817 North 423 487 39,000  Level Jacksonville Center
10:22AM 33.6103 -77.9606 North 446 513 39,000  Level Washington Center
10:23AM 33.7336 -77.9489 North 446 513 39,000  Level Washington Center
10:24AM 33.8569 -77.9325 North 446 513 39,000  Level Washington Center
10:25AM 33.9636 -77.9106 10° North 441 507 39,000  Level Washington Center
10:26AM 34.0850 -77.8989 North 441 507 39,000  Level Washington Center
10:27AM 34.2078 -77.9097 356° North 441 507 39,000  Level Washington Center
10:28AM 34.3289 -77.9056 North 436 502 39,000  Level Washington Center
10:29AM 34.4478 -77.9039 North 429 494 39,000  Level Washington Center
10:30AM 34.5647 -77.9022 North 424 488 39,000  Level Washington Center
10:31AM 34.6836 -77.8981 North 419 482 39,000  Level Washington Center
10:32AM 34.8006 -77.8961 North 419 482 39,000  Level Washington Center
10:33AM 34.9197 -77.8919 North 419 482 39,000  Level Washington Center
10:34AM 35.0386 -77.8928 360° North 419 482 39,000  Level Washington Center
10:35AM 35.1575 -77.8886 North 419 482 39,000  Level Washington Center
10:36AM 35.2764 -77.8869 North 419 482 39,000  Level Washington Center
10:37AM 35.3956 -77.8775 North 424 488 39,000  Level Washington Center
10:38AM 35.5144 -77.8811 359° North 424 488 39,000  Level Washington Center
10:39AM 35.6333 -77.8819 360° North 419 482 39,000  Level Washington Center
10:40AM 35.7650 -77.8753 North 419 482 39,000  Level Washington Center
10:41AM 35.8819 -77.8711 North 419 482 39,000  Level Washington Center
10:42AM 36.0050 -77.8669 North 424 488 39,000  Level Washington Center
10:43AM 36.1136 -77.8650 North 429 494 39,000  Level Washington Center
10:44AM 36.2328 -77.8606 North 429 494 39,000  Level Washington Center
10:45AM 36.3558 -77.8564 North 429 494 39,000  Level Washington Center
10:46AM 36.4853 -77.8550 360° North 434 499 39,000  Level Washington Center
10:47AM 36.6069 -77.8222 12° North 434 499 39,000  Level Washington Center
10:48AM 36.7247 -77.7608 23° Northeast 439 505 39,000  Level Washington Center
10:49AM 36.8447 -77.7019 21° North 449 517 39,000  Level Washington Center
10:50AM 36.9625 -77.6428 22° Northeast 449 517 39,000  Level Washington Center
10:51AM 37.0806 -77.5808 23° Northeast 454 522 39,000  Level Washington Center
10:52AM 37.2003 -77.5239 21° North 454 522 39,000  Level Washington Center
10:53AM 37.3181 -77.4617 23° Northeast 454 522 39,000  Level Washington Center
10:54AM 37.4381 -77.4019 22° Northeast 454 522 39,000  Level Washington Center
10:55AM 37.5556 -77.3417 22° Northeast 454 522 39,000  Level Washington Center
10:56AM 37.6753 -77.2814 22° Northeast 454 522 39,000 -360 Level Washington Center
10:57AM 37.7931 -77.2183 23° Northeast 454 522 38,400 -900 Descending Washington Center
10:58AM 37.9128 -77.1578 22° Northeast 454 522 37,200 -1,260 Descending Washington Center
10:59AM 38.0344 -77.0972 21° North 454 522 36,000 -1,260 Descending Washington Center
11:00AM 38.1542 -77.0336 23° Northeast 454 522 34,800 -1,140 Descending Washington Center
11:01AM 38.2592 -76.9800 22° Northeast 454 522 33,800 -1,200 Descending Washington Center
11:02AM 38.3892 -76.9136 22° Northeast 459 528 32,500 -900 Descending Washington Center
11:03AM 38.5128 -76.8494 22° Northeast 459 528 32,000 -300 Descending Washington Center
11:04AM 38.6344 -76.7850 22° Northeast 459 528 32,000  Level Washington Center
11:05AM 38.7478 -76.6964 31° Northeast 459 528 32,000 -60 Level Washington Center
11:06AM 38.8467 -76.5858 41° Northeast 467 537 31,900 -1,200 Descending Washington Center
11:07AM 38.9456 -76.4697 42° Northeast 467 537 29,600 -2,340 Descending Washington Center
11:08AM 39.0400 -76.3614 42° Northeast 467 537 27,200 -2,400 Descending Washington Center
11:09AM 39.1303 -76.2553 42° Northeast 445 512 24,800 -1,800 Descending Washington Center
11:10AM 39.2142 -76.1650 40° Northeast 435 501 23,700 -1,500 Descending Washington Center
11:11AM 39.3064 -76.0611 41° Northeast 435 501 21,900 -1,860 Descending Washington Center
11:12AM 39.4025 -75.9731 35° Northeast 429 494 20,000 -1,860 Descending Washington Center
11:13AM 39.4925 -75.8847 37° Northeast 411 473 18,200 -1,920 Descending Washington Center
11:15AM 39.6833 -75.7167 34° Northeast 400 460 14,500 -1,860 Descending Philadelphia TRACON
11:16AM 39.7667 -75.6333 38° Northeast 399 459 13,000 -780 Descending Philadelphia TRACON
11:17AM 39.8500 -75.5500 38° Northeast 389 448 13,000  Level Philadelphia TRACON
11:18AM 39.9500 -75.4667 33° Northeast 388 447 13,000  Level Philadelphia TRACON
11:19AM 40.0500 -75.3667 37° Northeast 388 447 13,000  Level Philadelphia TRACON
11:20AM 40.1333 -75.2833 37° Northeast 372 428 13,000 -1,140 Level Philadelphia TRACON
11:22AM 40.3000 -75.1333 34° Northeast 325 374 9,600 -1,560 Descending New York TRACON
11:23AM 40.3667 -75.0500 44° Northeast 279 321 7,900 -1,260 Descending New York TRACON
11:24AM 40.4167 -74.9833 45° Northeast 240 276 7,000 -900 Descending New York TRACON
11:25AM 40.4500 -74.9000 62° Northeast 245 282 6,100 -1,200 Descending New York TRACON
11:26AM 40.4833 -74.8333 57° Northeast 239 275 4,700 -1,440 Descending New York TRACON
11:27AM 40.5167 -74.7500 62° Northeast 231 266 3,300 -600 Descending New York TRACON
11:29AM 40.5667 -74.6167 66° East 205 236 3,000 -120 Descending New York TRACON
11:30AM 40.6000 -74.5500 57° Northeast 201 231 3,000  Level New York TRACON
11:31AM 40.6167 -74.4833 72° East 198 228 3,000 -60 Level New York TRACON
11:32AM 40.6500 -74.4167 57° Northeast 206 237 2,900 -540 Descending New York TRACON
11:33AM 40.6833 -74.3500 57° Northeast 212 244 2,000 -480 Descending New York TRACON
11:34AM 40.7000 -74.3000 66° East 197 227 2,000 -300 Level New York TRACON
11:35AM 40.7333 -74.2333 57° Northeast 190 219 1,500 -300 Descending New York TRACON
11:36AM 40.7667 -74.1833 49° Northeast 185 213 1,500  Level New York TRACON
11:37AM 40.8000 -74.1333 49° Northeast 189 217 1,500 -240 Level New York TRACON
11:38AM 40.8167 -74.0833 66° East 163 188 1,100 -600 Descending New York TRACON
11:39AM 40.8333 -74.0667 37° Northeast 107 123 400 -780 Descending New York TRACON